Frogtown, Pennsylvania
Current Conditions -  °F | °C
As of 4:56 AM on Friday 28 Nov 2014 (Local Time) from KCXY Reporting Station
Clear Clear  
Wind Chill: 23°   Ceiling: Unl
Heat Index: 32°   Visibility: 10mi
Dew Point: 21°   Wind: 12mph
Humidity: 64%   Direction: 270°W
Pressure: 30.17"   Gusts: 22mph
Location:  40.2034°N, 76.87°W
Report Text: KCXY 280956Z AUTO 27010G19KT 10SM CLR 00/M06 A3017 RMK AO2 SLP222 T00001061
Loading
Personal Weather Stations






























Interactive Weather Map New forecast layout! Learn more

10-Day Weather Forecast

Advertisements
Track Severe Weather on mobile